Time;durP1;ratioP1;P1;durP2;ratioP2;P2;SDS_P1;SDS_P2;PMS_P1;PMS_P2;Temp;Humidity;BMP_temperature;BMP_pressure;BME280_temperature;BME280_humidity;BME280_pressure;Samples;Min_cycle;Max_cycle;Signal;HPM_P1;HPM_P2
2021/08/02 00:01:07;;;;;;;4.15;2.10;;;;;;;;;;5092525;28;20599;-56
2021/08/02 00:03:51;;;;;;;5.72;2.25;;;;;;;;;;5094202;28;20128;-56
2021/08/02 00:06:24;;;;;;;2.75;1.88;;;;;;;;;;5092455;28;20478;-56
2021/08/02 00:08:55;;;;;;;3.45;2.33;;;;;;;;;;5093606;28;20024;-57
2021/08/02 00:11:22;;;;;;;2.75;1.77;;;;;;;;;;5093802;28;20466;-56
2021/08/02 00:13:50;;;;;;;4.57;2.05;;;;;;;;;;5093493;28;20028;-57
2021/08/02 00:16:17;;;;;;;2.78;2.03;;;;;;;;;;5093537;28;20029;-56
2021/08/02 00:18:43;;;;;;;2.90;2.42;;;;;;;;;;5093318;28;20031;-55
2021/08/02 00:21:09;;;;;;;3.25;1.80;;;;;;;;;;5092298;28;20446;-56
2021/08/02 00:23:35;;;;;;;4.18;1.88;;;;;;;;;;5093568;28;20458;-57
2021/08/02 00:26:02;;;;;;;3.47;1.98;;;;;;;;;;5093522;28;20044;-56
2021/08/02 00:28:29;;;;;;;3.08;2.05;;;;;;;;;;5092823;28;20093;-56
2021/08/02 00:30:55;;;;;;;1.85;1.23;;;;;;;;;;5093414;28;20444;-56
2021/08/02 00:33:21;;;;;;;2.67;1.80;;;;;;;;;;5092572;28;20028;-56
2021/08/02 00:35:51;;;;;;;2.90;1.85;;;;;;;;;;5092206;28;20073;-56
2021/08/02 00:38:25;;;;;;;3.93;2.10;;;;;;;;;;5093580;28;20441;-56
2021/08/02 00:41:26;;;;;;;2.63;1.75;;;;;;;;;;5093779;28;20469;-57
2021/08/02 00:44:11;;;;;;;3.80;1.77;;;;;;;;;;5090831;28;20505;-56
2021/08/02 00:46:41;;;;;;;2.90;1.98;;;;;;;;;;5092894;28;20044;-55
2021/08/02 00:49:08;;;;;;;3.50;3.00;;;;;;;;;;5093802;28;20028;-55
2021/08/02 00:51:39;;;;;;;3.25;2.20;;;;;;;;;;5093940;28;20398;-56
2021/08/02 00:54:05;;;;;;;3.03;1.60;;;;;;;;;;5092071;28;20115;-55
2021/08/02 00:56:33;;;;;;;2.45;1.73;;;;;;;;;;5092055;28;20038;-55
2021/08/02 00:59:04;;;;;;;5.40;2.20;;;;;;;;;;5092947;28;20020;-56
2021/08/02 01:01:30;;;;;;;5.47;2.60;;;;;;;;;;5096217;28;20056;-56
2021/08/02 01:03:56;;;;;;;3.10;1.75;;;;;;;;;;5078758;28;20031;-57
2021/08/02 01:06:23;;;;;;;2.65;2.00;;;;;;;;;;5097401;28;20027;-57
2021/08/02 01:08:51;;;;;;;2.70;1.88;;;;;;;;;;5096844;28;20024;-57
2021/08/02 01:11:21;;;;;;;3.20;2.08;;;;;;;;;;5095783;28;20487;-56
2021/08/02 01:13:47;;;;;;;2.77;2.07;;;;;;;;;;5097864;28;20035;-57
2021/08/02 01:16:13;;;;;;;3.17;1.98;;;;;;;;;;5096677;28;20024;-57
2021/08/02 01:18:49;;;;;;;7.50;2.13;;;;;;;;;;5096660;28;20043;-56
2021/08/02 01:21:19;;;;;;;2.53;1.52;;;;;;;;;;5096990;28;20078;-56
2021/08/02 01:23:49;;;;;;;3.38;2.05;;;;;;;;;;5096789;28;20035;-57
2021/08/02 01:26:21;;;;;;;2.58;1.73;;;;;;;;;;5096483;28;20055;-57
2021/08/02 01:29:06;;;;;;;2.67;1.75;;;;;;;;;;5096744;28;20020;-56
2021/08/02 01:31:32;;;;;;;2.80;1.60;;;;;;;;;;5096076;28;20023;-57
2021/08/02 01:33:58;;;;;;;3.85;2.00;;;;;;;;;;5095068;28;20032;-57
2021/08/02 01:36:26;;;;;;;2.85;1.92;;;;;;;;;;5096547;28;20031;-57
2021/08/02 01:38:52;;;;;;;4.65;2.30;;;;;;;;;;5078510;28;20017;-57
2021/08/02 01:41:18;;;;;;;2.90;1.95;;;;;;;;;;5095839;28;20028;-57
2021/08/02 01:43:44;;;;;;;3.17;1.95;;;;;;;;;;5094753;28;20038;-56
2021/08/02 01:46:16;;;;;;;4.05;2.42;;;;;;;;;;5096175;28;20044;-57
2021/08/02 01:49:03;;;;;;;2.47;1.63;;;;;;;;;;5096659;28;20074;-56
2021/08/02 01:51:36;;;;;;;4.30;2.33;;;;;;;;;;5095515;28;20028;-57
2021/08/02 01:54:10;;;;;;;2.80;1.77;;;;;;;;;;5096830;28;20032;-57
2021/08/02 01:56:49;;;;;;;3.80;2.67;;;;;;;;;;5096474;28;20089;-57
2021/08/02 01:59:17;;;;;;;3.92;1.90;;;;;;;;;;5095869;28;20020;-57
2021/08/02 02:01:53;;;;;;;3.80;2.08;;;;;;;;;;5095598;28;20119;-55
2021/08/02 02:04:21;;;;;;;2.53;1.58;;;;;;;;;;5096511;28;20025;-56
2021/08/02 02:06:49;;;;;;;3.03;1.55;;;;;;;;;;5095354;28;20051;-56
2021/08/02 02:09:17;;;;;;;6.18;2.92;;;;;;;;;;5095969;28;20034;-56
2021/08/02 02:11:48;;;;;;;3.03;1.77;;;;;;;;;;5095286;28;20545;-56
2021/08/02 02:14:15;;;;;;;2.25;1.42;;;;;;;;;;5095890;28;20107;-57
2021/08/02 02:16:42;;;;;;;3.20;1.50;;;;;;;;;;5095683;28;20053;-57
2021/08/02 02:19:09;;;;;;;5.05;2.15;;;;;;;;;;5094992;28;20108;-56
2021/08/02 02:21:36;;;;;;;4.95;2.00;;;;;;;;;;5095451;28;20101;-56
2021/08/02 02:24:03;;;;;;;2.50;1.63;;;;;;;;;;5095826;28;20035;-56
2021/08/02 02:26:32;;;;;;;2.95;1.85;;;;;;;;;;5095072;28;20093;-57
2021/08/02 02:29:02;;;;;;;3.33;1.75;;;;;;;;;;5094327;28;20024;-57
2021/08/02 02:31:34;;;;;;;6.18;2.42;;;;;;;;;;5095592;28;20020;-54
2021/08/02 02:34:00;;;;;;;4.85;1.48;;;;;;;;;;5095869;28;20511;-57
2021/08/02 02:36:28;;;;;;;3.05;2.00;;;;;;;;;;5095422;28;20078;-57
2021/08/02 02:38:57;;;;;;;3.53;2.08;;;;;;;;;;5095351;28;20028;-56
2021/08/02 02:41:24;;;;;;;3.63;2.25;;;;;;;;;;5093803;28;20024;-55
2021/08/02 02:43:50;;;;;;;6.57;2.50;;;;;;;;;;5094922;28;20028;-57
2021/08/02 02:46:20;;;;;;;2.95;1.88;;;;;;;;;;5094502;28;20097;-56
2021/08/02 02:48:46;;;;;;;3.03;2.10;;;;;;;;;;5094972;28;20450;-57
2021/08/02 02:51:13;;;;;;;3.30;2.28;;;;;;;;;;5094870;28;20347;-56
2021/08/02 02:53:42;;;;;;;5.80;1.90;;;;;;;;;;5094768;28;20028;-57
2021/08/02 02:56:09;;;;;;;2.80;2.03;;;;;;;;;;5094707;28;20024;-57
2021/08/02 02:58:36;;;;;;;2.38;1.60;;;;;;;;;;5094677;28;20020;-57
2021/08/02 03:01:03;;;;;;;3.25;1.92;;;;;;;;;;5094623;28;20027;-56
2021/08/02 03:03:30;;;;;;;3.50;2.08;;;;;;;;;;5095133;28;20024;-57
2021/08/02 03:05:56;;;;;;;3.35;1.90;;;;;;;;;;5093014;28;20031;-54
2021/08/02 03:08:23;;;;;;;3.42;2.25;;;;;;;;;;5094824;28;20028;-56
2021/08/02 03:10:50;;;;;;;4.43;1.80;;;;;;;;;;5094598;28;20117;-56
2021/08/02 03:13:16;;;;;;;3.10;1.90;;;;;;;;;;5095023;28;20028;-57
2021/08/02 03:15:45;;;;;;;3.65;2.15;;;;;;;;;;5094506;28;20020;-56
2021/08/02 03:18:11;;;;;;;3.08;2.30;;;;;;;;;;5094308;28;20035;-56
2021/08/02 03:20:37;;;;;;;2.72;1.92;;;;;;;;;;5094266;28;20529;-56
2021/08/02 03:23:11;;;;;;;3.97;2.00;;;;;;;;;;5094562;28;20043;-56
2021/08/02 03:25:55;;;;;;;3.38;2.25;;;;;;;;;;5094805;28;20024;-54
2021/08/02 03:28:44;;;;;;;7.00;4.05;;;;;;;;;;5094796;28;20361;-57
2021/08/02 03:31:12;;;;;;;3.13;1.98;;;;;;;;;;5093949;28;20519;-56
2021/08/02 03:33:40;;;;;;;7.97;2.25;;;;;;;;;;5092876;28;20066;-57
2021/08/02 03:36:17;;;;;;;3.28;1.98;;;;;;;;;;5092666;28;20031;-56
2021/08/02 03:38:46;;;;;;;4.90;2.45;;;;;;;;;;5094129;28;20020;-56
2021/08/02 03:41:16;;;;;;;3.22;1.85;;;;;;;;;;5094136;28;20028;-57
2021/08/02 03:43:42;;;;;;;2.90;1.85;;;;;;;;;;5092746;28;20031;-56
2021/08/02 03:46:09;;;;;;;2.50;1.85;;;;;;;;;;5094144;28;20064;-55
2021/08/02 03:48:38;;;;;;;3.22;1.98;;;;;;;;;;5092741;28;20032;-57
2021/08/02 03:51:06;;;;;;;5.60;2.47;;;;;;;;;;5093636;28;20481;-57
2021/08/02 03:53:58;;;;;;;3.92;2.00;;;;;;;;;;5094338;28;20039;-56
2021/08/02 03:56:24;;;;;;;2.85;1.88;;;;;;;;;;5093961;28;20495;-56
2021/08/02 03:58:50;;;;;;;2.72;1.95;;;;;;;;;;5092343;28;20417;-56
2021/08/02 04:01:16;;;;;;;2.97;2.03;;;;;;;;;;5092688;28;20056;-56
2021/08/02 04:03:42;;;;;;;5.63;1.92;;;;;;;;;;5094035;28;20067;-56
2021/08/02 04:06:10;;;;;;;3.13;2.22;;;;;;;;;;5093748;28;20032;-56
2021/08/02 04:08:38;;;;;;;2.78;1.88;;;;;;;;;;5092449;28;20103;-56
2021/08/02 04:11:06;;;;;;;2.97;2.15;;;;;;;;;;5093662;28;20055;-57
2021/08/02 04:13:32;;;;;;;7.47;2.78;;;;;;;;;;5094064;28;20039;-56
2021/08/02 04:15:58;;;;;;;3.53;2.33;;;;;;;;;;5093567;28;20077;-57
2021/08/02 04:18:24;;;;;;;2.92;2.13;;;;;;;;;;5092439;28;20016;-55
2021/08/02 04:20:54;;;;;;;3.00;2.30;;;;;;;;;;5093659;28;20034;-56
2021/08/02 04:23:20;;;;;;;3.42;2.05;;;;;;;;;;5094176;28;20028;-57
2021/08/02 04:25:46;;;;;;;3.85;2.20;;;;;;;;;;5092416;28;20059;-55
2021/08/02 04:28:12;;;;;;;3.63;2.20;;;;;;;;;;5093514;28;20031;-56
2021/08/02 04:30:38;;;;;;;3.75;2.28;;;;;;;;;;5093584;28;20028;-56
2021/08/02 04:33:04;;;;;;;3.65;2.13;;;;;;;;;;5093852;28;20382;-56
2021/08/02 04:35:30;;;;;;;5.78;1.77;;;;;;;;;;5094744;28;20480;-57
2021/08/02 04:37:56;;;;;;;7.05;2.53;;;;;;;;;;5095617;28;20085;-56
2021/08/02 04:40:22;;;;;;;3.10;1.92;;;;;;;;;;5097499;28;20024;-56
2021/08/02 04:42:48;;;;;;;3.38;2.10;;;;;;;;;;5097790;28;20028;-56
2021/08/02 04:45:14;;;;;;;5.50;2.10;;;;;;;;;;5097257;28;20032;-57
2021/08/02 04:47:40;;;;;;;2.70;1.83;;;;;;;;;;5097609;28;20043;-57
2021/08/02 04:50:06;;;;;;;3.08;2.20;;;;;;;;;;5097375;28;20035;-56
2021/08/02 04:52:32;;;;;;;3.50;1.98;;;;;;;;;;5097259;28;20024;-56
2021/08/02 04:54:58;;;;;;;5.50;2.25;;;;;;;;;;5097760;28;20122;-56
2021/08/02 04:57:24;;;;;;;3.33;1.65;;;;;;;;;;5097172;28;20179;-56
2021/08/02 04:59:50;;;;;;;3.50;2.35;;;;;;;;;;5095544;28;20032;-56
2021/08/02 05:02:16;;;;;;;2.75;2.00;;;;;;;;;;5097186;28;20027;-57
2021/08/02 05:04:42;;;;;;;3.10;1.98;;;;;;;;;;5096842;28;20035;-57
2021/08/02 05:07:08;;;;;;;6.07;1.90;;;;;;;;;;5097575;28;20032;-56
2021/08/02 05:09:34;;;;;;;2.55;1.83;;;;;;;;;;5097261;28;20032;-55
2021/08/02 05:12:00;;;;;;;3.22;1.92;;;;;;;;;;5096947;28;20048;-56
2021/08/02 05:14:26;;;;;;;3.63;1.83;;;;;;;;;;5078814;28;20028;-56
2021/08/02 05:16:52;;;;;;;7.35;1.92;;;;;;;;;;5096694;28;20028;-56
2021/08/02 05:19:18;;;;;;;7.00;2.17;;;;;;;;;;5097386;28;20398;-56
2021/08/02 05:21:45;;;;;;;2.75;1.90;;;;;;;;;;5097232;28;20075;-57
2021/08/02 05:24:11;;;;;;;3.38;2.15;;;;;;;;;;5095147;28;20063;-56
2021/08/02 05:26:37;;;;;;;2.30;1.38;;;;;;;;;;5097097;28;20028;-56
2021/08/02 05:29:03;;;;;;;3.75;2.05;;;;;;;;;;5096568;28;20058;-56
2021/08/02 05:31:30;;;;;;;4.60;2.35;;;;;;;;;;5095865;28;20028;-56
2021/08/02 05:33:56;;;;;;;4.43;2.33;;;;;;;;;;5096368;28;20085;-56
2021/08/02 05:36:22;;;;;;;2.67;1.98;;;;;;;;;;5096367;28;20020;-56
2021/08/02 05:38:48;;;;;;;3.10;2.17;;;;;;;;;;5096373;28;20024;-56
2021/08/02 05:41:14;;;;;;;4.05;2.33;;;;;;;;;;5095164;28;20035;-56
2021/08/02 05:43:40;;;;;;;4.00;1.77;;;;;;;;;;5096138;28;20107;-56
2021/08/02 05:46:06;;;;;;;2.65;1.98;;;;;;;;;;5096086;28;20032;-56
2021/08/02 05:48:33;;;;;;;4.97;2.70;;;;;;;;;;5096153;28;20058;-57
2021/08/02 05:50:59;;;;;;;3.45;2.08;;;;;;;;;;5095515;28;20442;-57
2021/08/02 05:53:27;;;;;;;2.40;1.80;;;;;;;;;;5096453;28;20137;-57
2021/08/02 05:55:53;;;;;;;3.22;2.03;;;;;;;;;;5079077;28;20063;-56
2021/08/02 05:58:19;;;;;;;4.82;2.35;;;;;;;;;;5095783;28;20452;-55
2021/08/02 06:00:48;;;;;;;2.50;1.52;;;;;;;;;;5094533;28;20062;-56
2021/08/02 06:03:14;;;;;;;3.78;1.80;;;;;;;;;;5095319;28;20128;-57
2021/08/02 06:05:40;;;;;;;2.38;1.75;;;;;;;;;;5094514;28;20060;-56
2021/08/02 06:08:06;;;;;;;2.55;1.77;;;;;;;;;;5094790;28;20021;-56
2021/08/02 06:10:32;;;;;;;2.47;1.75;;;;;;;;;;5096470;28;20077;-57
2021/08/02 06:12:58;;;;;;;3.10;2.08;;;;;;;;;;5096257;28;20048;-56
2021/08/02 06:15:24;;;;;;;2.47;1.35;;;;;;;;;;5095239;28;20484;-56
2021/08/02 06:17:50;;;;;;;2.90;1.80;;;;;;;;;;5095727;28;20031;-57
2021/08/02 06:20:16;;;;;;;6.35;2.25;;;;;;;;;;5094141;28;20111;-56
2021/08/02 06:22:42;;;;;;;3.22;2.00;;;;;;;;;;5095178;28;20024;-56
2021/08/02 06:25:11;;;;;;;6.35;2.13;;;;;;;;;;5094242;28;20089;-57
2021/08/02 06:27:37;;;;;;;3.65;1.85;;;;;;;;;;5095369;28;20355;-56
2021/08/02 06:30:04;;;;;;;2.25;1.75;;;;;;;;;;5094060;28;20031;-56
2021/08/02 06:32:30;;;;;;;3.60;1.50;;;;;;;;;;5095851;28;20028;-57
2021/08/02 06:34:56;;;;;;;3.15;1.50;;;;;;;;;;5095334;28;20115;-57
2021/08/02 06:37:23;;;;;;;2.65;1.90;;;;;;;;;;5095276;28;20074;-57
2021/08/02 06:39:49;;;;;;;2.63;1.90;;;;;;;;;;5093902;28;20024;-57
2021/08/02 06:42:15;;;;;;;3.63;1.83;;;;;;;;;;5095066;28;20024;-57
2021/08/02 06:44:42;;;;;;;9.27;2.35;;;;;;;;;;5076905;28;20178;-57
2021/08/02 06:47:08;;;;;;;3.75;1.98;;;;;;;;;;5095076;28;20028;-57
2021/08/02 06:49:35;;;;;;;4.30;1.85;;;;;;;;;;5095239;28;20032;-57
2021/08/02 06:52:01;;;;;;;4.25;1.63;;;;;;;;;;5095518;28;20056;-56
2021/08/02 06:54:27;;;;;;;3.17;2.08;;;;;;;;;;5094878;28;20449;-56
2021/08/02 06:56:53;;;;;;;2.10;1.67;;;;;;;;;;5094923;28;20188;-57
2021/08/02 06:59:19;;;;;;;2.92;2.05;;;;;;;;;;5094745;28;20218;-57
2021/08/02 07:01:45;;;;;;;5.85;2.05;;;;;;;;;;5095362;28;20431;-57
2021/08/02 07:04:14;;;;;;;3.72;1.80;;;;;;;;;;5094535;28;20047;-57
2021/08/02 07:06:41;;;;;;;3.00;2.03;;;;;;;;;;5094729;28;20307;-57
2021/08/02 07:09:09;;;;;;;4.07;2.47;;;;;;;;;;5094729;28;20020;-57
2021/08/02 07:11:35;;;;;;;5.13;2.55;;;;;;;;;;5094935;28;20051;-57
2021/08/02 07:14:05;;;;;;;3.08;1.80;;;;;;;;;;5094527;28;20031;-57
2021/08/02 07:16:31;;;;;;;2.78;1.70;;;;;;;;;;5092819;28;20090;-57
2021/08/02 07:18:57;;;;;;;2.50;1.92;;;;;;;;;;5094432;28;20024;-57
2021/08/02 07:21:23;;;;;;;2.78;1.98;;;;;;;;;;5094414;28;20053;-57
2021/08/02 07:23:49;;;;;;;2.22;1.50;;;;;;;;;;5095051;28;20032;-57
2021/08/02 07:26:15;;;;;;;2.78;1.83;;;;;;;;;;5094356;28;20035;-57
2021/08/02 07:28:43;;;;;;;5.85;2.38;;;;;;;;;;5094233;28;20031;-57
2021/08/02 07:31:11;;;;;;;2.78;1.75;;;;;;;;;;5092993;28;20046;-57
2021/08/02 07:33:39;;;;;;;2.45;1.75;;;;;;;;;;5093498;28;20157;-57
2021/08/02 07:36:07;;;;;;;2.83;1.65;;;;;;;;;;5094887;28;20031;-57
2021/08/02 07:38:33;;;;;;;4.60;2.22;;;;;;;;;;5093939;28;20035;-57
2021/08/02 07:40:59;;;;;;;1.73;1.30;;;;;;;;;;5094058;28;20027;-57
2021/08/02 07:43:28;;;;;;;3.40;1.13;;;;;;;;;;5092545;28;20040;-57
2021/08/02 07:45:54;;;;;;;2.97;1.73;;;;;;;;;;5094074;28;20024;-57
2021/08/02 07:48:20;;;;;;;2.20;1.27;;;;;;;;;;5094302;28;20035;-57
2021/08/02 07:50:46;;;;;;;3.28;1.73;;;;;;;;;;5092605;28;20020;-57
2021/08/02 07:53:12;;;;;;;3.20;1.92;;;;;;;;;;5094013;28;20111;-57
2021/08/02 07:55:38;;;;;;;2.92;1.70;;;;;;;;;;5094117;28;20024;-57
2021/08/02 07:58:08;;;;;;;3.40;1.63;;;;;;;;;;5092991;28;20027;-57
2021/08/02 08:00:34;;;;;;;2.83;1.37;;;;;;;;;;5093836;28;20397;-57
2021/08/02 08:03:00;;;;;;;3.50;1.90;;;;;;;;;;5093994;28;20691;-57
2021/08/02 08:05:26;;;;;;;3.08;1.88;;;;;;;;;;5094464;28;20118;-57
2021/08/02 08:07:53;;;;;;;2.50;1.50;;;;;;;;;;5093593;28;20020;-57
2021/08/02 08:10:20;;;;;;;5.05;1.30;;;;;;;;;;5076352;28;20462;-57
2021/08/02 08:12:46;;;;;;;2.25;1.40;;;;;;;;;;5098872;28;20300;-57
2021/08/02 08:15:13;;;;;;;1.90;0.95;;;;;;;;;;5097801;28;20028;-57
2021/08/02 08:17:39;;;;;;;2.80;1.30;;;;;;;;;;5097559;28;20020;-57
2021/08/02 08:20:06;;;;;;;5.00;1.45;;;;;;;;;;5097824;28;20520;-58
2021/08/02 08:22:32;;;;;;;5.53;2.10;;;;;;;;;;5097857;28;20086;-57
2021/08/02 08:24:58;;;;;;;3.33;1.33;;;;;;;;;;5097500;28;20456;-57
2021/08/02 08:27:24;;;;;;;1.67;1.13;;;;;;;;;;5097009;28;20024;-57
2021/08/02 08:29:50;;;;;;;4.13;2.30;;;;;;;;;;5097680;28;20461;-57
2021/08/02 08:32:16;;;;;;;2.70;1.50;;;;;;;;;;5097185;28;20128;-57
2021/08/02 08:34:42;;;;;;;3.10;1.38;;;;;;;;;;5098105;28;20118;-57
2021/08/02 08:37:08;;;;;;;3.30;1.60;;;;;;;;;;5096294;28;20017;-57
2021/08/02 08:39:34;;;;;;;2.60;1.50;;;;;;;;;;5097497;28;20032;-57
2021/08/02 08:42:00;;;;;;;3.05;1.10;;;;;;;;;;5097284;28;20051;-57
2021/08/02 08:44:27;;;;;;;1.52;0.88;;;;;;;;;;5095955;28;20032;-57
2021/08/02 08:46:53;;;;;;;2.17;1.15;;;;;;;;;;5096958;28;20039;-57
2021/08/02 08:49:19;;;;;;;2.10;1.08;;;;;;;;;;5097052;28;20027;-57
2021/08/02 08:51:47;;;;;;;2.28;1.20;;;;;;;;;;5096300;28;20020;-57
2021/08/02 08:54:13;;;;;;;6.45;1.33;;;;;;;;;;5097230;28;20465;-57
2021/08/02 08:56:39;;;;;;;2.15;1.17;;;;;;;;;;5095929;28;20031;-57
2021/08/02 08:59:05;;;;;;;3.22;1.40;;;;;;;;;;5097087;28;20062;-57
2021/08/02 09:01:32;;;;;;;2.17;1.20;;;;;;;;;;5097100;28;20469;-57
2021/08/02 09:03:59;;;;;;;2.20;1.00;;;;;;;;;;5097529;28;20039;-57
2021/08/02 09:06:25;;;;;;;3.40;1.10;;;;;;;;;;5095695;28;20027;-57
2021/08/02 09:08:52;;;;;;;2.10;0.95;;;;;;;;;;5097218;28;20024;-57
2021/08/02 09:11:22;;;;;;;1.90;0.80;;;;;;;;;;5095872;28;20386;-57
2021/08/02 09:13:49;;;;;;;1.38;0.80;;;;;;;;;;5096863;28;20024;-57
2021/08/02 09:16:22;;;;;;;1.95;0.90;;;;;;;;;;5096917;28;20055;-57
2021/08/02 09:19:03;;;;;;;2.08;0.93;;;;;;;;;;5097348;28;20024;-57
2021/08/02 09:21:42;;;;;;;2.40;1.05;;;;;;;;;;5096217;28;20055;-57
2021/08/02 09:24:08;;;;;;;3.28;1.58;;;;;;;;;;5095233;28;20034;-57
2021/08/02 09:26:38;;;;;;;1.90;0.68;;;;;;;;;;5096619;28;20024;-57
2021/08/02 09:29:05;;;;;;;2.35;1.08;;;;;;;;;;5094902;28;20029;-57
2021/08/02 09:31:47;;;;;;;1.90;1.00;;;;;;;;;;5095255;28;20035;-57
2021/08/02 09:34:13;;;;;;;3.47;1.40;;;;;;;;;;5096522;28;20052;-57
2021/08/02 09:36:43;;;;;;;2.88;1.55;;;;;;;;;;5096950;28;20077;-57
2021/08/02 09:39:10;;;;;;;1.73;0.90;;;;;;;;;;5096231;28;20027;-57
2021/08/02 09:41:36;;;;;;;5.60;1.10;;;;;;;;;;5096287;28;20024;-57
2021/08/02 09:44:04;;;;;;;2.28;1.25;;;;;;;;;;5096159;28;20401;-57
2021/08/02 09:46:30;;;;;;;4.43;1.50;;;;;;;;;;5095881;28;20036;-57
2021/08/02 09:49:05;;;;;;;2.10;1.13;;;;;;;;;;5095162;28;20078;-57
2021/08/02 09:51:42;;;;;;;2.97;0.98;;;;;;;;;;5096121;28;20016;-57
2021/08/02 09:54:08;;;;;;;2.30;1.45;;;;;;;;;;5095991;28;20107;-58
2021/08/02 09:56:35;;;;;;;3.22;1.75;;;;;;;;;;5095933;28;20035;-58
2021/08/02 09:59:02;;;;;;;3.78;1.63;;;;;;;;;;5095892;28;20489;-58
2021/08/02 10:01:28;;;;;;;2.08;1.13;;;;;;;;;;5095007;28;20020;-57
2021/08/02 10:03:54;;;;;;;3.55;1.35;;;;;;;;;;5094412;28;20055;-58
2021/08/02 10:06:20;;;;;;;4.47;1.20;;;;;;;;;;5096126;28;20043;-58
2021/08/02 10:08:46;;;;;;;3.20;1.17;;;;;;;;;;5096001;28;20059;-58
2021/08/02 10:11:12;;;;;;;1.48;0.70;;;;;;;;;;5095433;28;20075;-57
2021/08/02 10:13:43;;;;;;;1.83;0.95;;;;;;;;;;5095726;28;20020;-58
2021/08/02 10:16:10;;;;;;;2.53;1.40;;;;;;;;;;5095810;28;20024;-57
2021/08/02 10:18:38;;;;;;;2.17;1.10;;;;;;;;;;5095307;28;20473;-57
2021/08/02 10:21:04;;;;;;;2.03;1.00;;;;;;;;;;5095784;28;20028;-57
2021/08/02 10:23:30;;;;;;;1.48;0.70;;;;;;;;;;5095600;28;20031;-58
2021/08/02 10:25:56;;;;;;;3.10;1.00;;;;;;;;;;5095894;28;20027;-58
2021/08/02 10:28:22;;;;;;;2.80;1.10;;;;;;;;;;5094275;28;20020;-58
2021/08/02 10:31:00;;;;;;;4.63;0.85;;;;;;;;;;5095880;28;20408;-58
2021/08/02 10:33:39;;;;;;;1.05;0.60;;;;;;;;;;5093038;28;20046;-57
2021/08/02 10:36:17;;;;;;;1.90;0.95;;;;;;;;;;5095203;28;20103;-57
2021/08/02 10:38:44;;;;;;;2.58;1.00;;;;;;;;;;5095468;28;20012;-58
2021/08/02 10:41:10;;;;;;;2.22;0.80;;;;;;;;;;5095201;28;20135;-57
2021/08/02 10:43:40;;;;;;;1.52;0.75;;;;;;;;;;5093579;28;20046;-58
2021/08/02 10:46:24;;;;;;;1.88;0.90;;;;;;;;;;5095111;28;20012;-58
2021/08/02 10:48:51;;;;;;;1.38;0.85;;;;;;;;;;5094926;28;20024;-57
2021/08/02 10:51:20;;;;;;;2.03;0.90;;;;;;;;;;5095821;28;20028;-57
2021/08/02 10:53:56;;;;;;;3.15;1.23;;;;;;;;;;5095181;28;20365;-58
2021/08/02 10:56:26;;;;;;;1.38;0.80;;;;;;;;;;5094842;28;20024;-58
2021/08/02 10:58:52;;;;;;;1.30;0.68;;;;;;;;;;5094923;28;20369;-58
2021/08/02 11:01:20;;;;;;;1.60;0.70;;;;;;;;;;5094832;28;20024;-57
2021/08/02 11:03:46;;;;;;;1.23;0.68;;;;;;;;;;5094643;28;20024;-57
2021/08/02 11:06:13;;;;;;;1.52;0.80;;;;;;;;;;5093503;28;20110;-57
2021/08/02 11:08:49;;;;;;;1.63;0.80;;;;;;;;;;5094604;28;20077;-58
2021/08/02 11:11:25;;;;;;;1.30;0.80;;;;;;;;;;5094232;28;20474;-58
2021/08/02 11:13:51;;;;;;;1.15;0.73;;;;;;;;;;5095255;28;20063;-58
2021/08/02 11:16:18;;;;;;;1.13;0.60;;;;;;;;;;5094444;28;20476;-57
2021/08/02 11:18:45;;;;;;;0.88;0.40;;;;;;;;;;5094436;28;20050;-58
2021/08/02 11:21:21;;;;;;;0.95;0.32;;;;;;;;;;5094712;28;20030;-58
2021/08/02 11:23:47;;;;;;;3.53;0.77;;;;;;;;;;5094240;28;20484;-57
2021/08/02 11:26:16;;;;;;;3.03;1.20;;;;;;;;;;5094702;28;20102;-57
2021/08/02 11:28:43;;;;;;;1.88;0.82;;;;;;;;;;5094276;28;20111;-58
2021/08/02 11:31:12;;;;;;;1.05;0.55;;;;;;;;;;5094269;28;20485;-57
2021/08/02 11:33:43;;;;;;;1.52;0.80;;;;;;;;;;5094233;28;20643;-58
2021/08/02 11:36:16;;;;;;;2.03;0.82;;;;;;;;;;5094543;28;20020;-58
2021/08/02 11:38:42;;;;;;;1.45;0.77;;;;;;;;;;5094201;28;20330;-58
2021/08/02 11:41:08;;;;;;;2.83;1.25;;;;;;;;;;5093963;28;20046;-57
2021/08/02 11:43:45;;;;;;;1.23;0.65;;;;;;;;;;5094579;28;20026;-58
2021/08/02 11:46:12;;;;;;;1.30;0.55;;;;;;;;;;5094283;28;20027;-58
2021/08/02 11:48:44;;;;;;;1.70;0.77;;;;;;;;;;5093855;28;20378;-58
2021/08/02 11:51:13;;;;;;;1.15;0.70;;;;;;;;;;5094157;28;20024;-58
2021/08/02 11:53:39;;;;;;;1.35;0.70;;;;;;;;;;5094298;28;20466;-58
2021/08/02 11:56:06;;;;;;;1.73;0.85;;;;;;;;;;5094195;28;20098;-58
2021/08/02 11:58:39;;;;;;;4.60;0.93;;;;;;;;;;5093632;28;20521;-58
2021/08/02 12:01:05;;;;;;;1.95;0.85;;;;;;;;;;5093374;28;20036;-58
2021/08/02 12:03:31;;;;;;;1.88;1.15;;;;;;;;;;5094321;28;20021;-58
2021/08/02 12:06:04;;;;;;;2.13;0.75;;;;;;;;;;5093687;28;20027;-58
2021/08/02 12:08:30;;;;;;;1.20;0.73;;;;;;;;;;5093697;28;20024;-58
2021/08/02 12:11:00;;;;;;;1.60;0.80;;;;;;;;;;5093364;28;20461;-58
2021/08/02 12:13:26;;;;;;;;;;;;;;;;;;5094157;28;20023;-58
2021/08/02 12:15:54;;;;;;;2.00;1.02;;;;;;;;;;5093088;28;19903;-58
2021/08/02 12:18:36;;;;;;;2.75;1.30;;;;;;;;;;5093544;28;20111;-58
2021/08/02 12:21:12;;;;;;;1.48;0.80;;;;;;;;;;5093307;28;20358;-57
2021/08/02 12:23:39;;;;;;;2.30;1.13;;;;;;;;;;5093683;28;20024;-58
2021/08/02 12:26:19;;;;;;;1.90;0.77;;;;;;;;;;5093972;28;20028;-57
2021/08/02 12:28:45;;;;;;;2.60;0.87;;;;;;;;;;5093691;28;20020;-57
2021/08/02 12:31:17;;;;;;;0.98;0.40;;;;;;;;;;5093530;28;20381;-57
2021/08/02 12:33:45;;;;;;;1.15;0.57;;;;;;;;;;5093587;28;20103;-57
2021/08/02 12:36:11;;;;;;;0.50;0.20;;;;;;;;;;5092064;28;20020;-57
2021/08/02 12:38:41;;;;;;;1.17;0.55;;;;;;;;;;5093500;28;20043;-57
2021/08/02 12:41:08;;;;;;;1.05;0.47;;;;;;;;;;5093860;28;20020;-57
2021/08/02 12:43:34;;;;;;;1.35;0.80;;;;;;;;;;5093555;28;20027;-57
2021/08/02 12:46:00;;;;;;;1.30;0.50;;;;;;;;;;5093186;28;20025;-57
2021/08/02 12:48:26;;;;;;;0.95;0.50;;;;;;;;;;5092192;28;20028;-57
2021/08/02 12:50:52;;;;;;;1.17;0.70;;;;;;;;;;5093089;28;20453;-57
2021/08/02 12:53:18;;;;;;;0.85;0.40;;;;;;;;;;5092970;28;20111;-58
2021/08/02 12:55:44;;;;;;;1.45;0.80;;;;;;;;;;5093554;28;20063;-57
2021/08/02 12:58:12;;;;;;;2.00;0.95;;;;;;;;;;5096643;28;20436;-58
2021/08/02 13:00:37;;;;;;;1.73;1.00;;;;;;;;;;5097455;28;20350;-58
2021/08/02 13:03:04;;;;;;;2.70;1.13;;;;;;;;;;5097838;28;20030;-58
2021/08/02 13:05:30;;;;;;;3.30;1.02;;;;;;;;;;5096616;28;20040;-58
2021/08/02 13:07:57;;;;;;;1.58;0.70;;;;;;;;;;5097315;28;20454;-58
2021/08/02 13:10:23;;;;;;;1.40;0.70;;;;;;;;;;5096724;28;20032;-58
2021/08/02 13:12:49;;;;;;;1.15;0.63;;;;;;;;;;5096738;28;20120;-58
2021/08/02 13:15:15;;;;;;;1.30;0.73;;;;;;;;;;5096407;28;20583;-58
2021/08/02 13:17:41;;;;;;;1.17;0.63;;;;;;;;;;5096713;28;20107;-58
2021/08/02 13:20:07;;;;;;;1.42;0.80;;;;;;;;;;5096680;28;20458;-58
2021/08/02 13:22:45;;;;;;;2.65;1.13;;;;;;;;;;5097036;28;20050;-58
2021/08/02 13:27:56;;;;;;;3.08;1.00;;;;;;;;;;5096669;28;20031;-58
2021/08/02 13:30:22;;;;;;;1.30;0.80;;;;;;;;;;5096502;28;20452;-58
2021/08/02 13:32:49;;;;;;;1.38;0.90;;;;;;;;;;5097262;28;20457;-58
2021/08/02 13:35:15;;;;;;;1.38;0.63;;;;;;;;;;5096448;28;20101;-58
2021/08/02 13:37:41;;;;;;;1.50;0.70;;;;;;;;;;5096387;28;20400;-58
2021/08/02 13:40:07;;;;;;;1.85;0.95;;;;;;;;;;5096389;28;20146;-58
2021/08/02 13:42:33;;;;;;;1.25;0.77;;;;;;;;;;5095101;28;20016;-58
2021/08/02 13:45:00;;;;;;;1.95;0.90;;;;;;;;;;5096471;28;20401;-58
2021/08/02 13:47:29;;;;;;;1.42;0.82;;;;;;;;;;5096471;28;20069;-58
2021/08/02 13:49:58;;;;;;;1.58;0.90;;;;;;;;;;5096489;28;20024;-58
2021/08/02 13:52:24;;;;;;;2.88;0.80;;;;;;;;;;5096683;28;20044;-58
2021/08/02 13:54:50;;;;;;;1.58;0.70;;;;;;;;;;5096040;28;20021;-58
2021/08/02 13:57:16;;;;;;;1.83;0.80;;;;;;;;;;5094698;28;20027;-58
2021/08/02 13:59:43;;;;;;;1.63;0.60;;;;;;;;;;5096059;28;20024;-58
2021/08/02 14:02:10;;;;;;;2.08;0.90;;;;;;;;;;5094443;28;20118;-58
2021/08/02 14:04:37;;;;;;;2.35;1.35;;;;;;;;;;5094848;28;20042;-58
2021/08/02 14:07:03;;;;;;;2.30;0.68;;;;;;;;;;5095835;28;20070;-58
2021/08/02 14:09:34;;;;;;;1.75;0.80;;;;;;;;;;5095827;28;20012;-58
2021/08/02 14:12:00;;;;;;;1.52;0.90;;;;;;;;;;5096108;28;20048;-58
2021/08/02 14:14:29;;;;;;;1.55;0.85;;;;;;;;;;5096293;28;20063;-58
2021/08/02 14:16:57;;;;;;;1.50;0.90;;;;;;;;;;5095659;28;20058;-58
2021/08/02 14:19:27;;;;;;;2.22;0.90;;;;;;;;;;5095534;28;20069;-58
2021/08/02 14:21:58;;;;;;;1.42;0.90;;;;;;;;;;5096190;28;20354;-58
2021/08/02 14:24:25;;;;;;;1.55;0.85;;;;;;;;;;5094344;28;20032;-58
2021/08/02 14:26:51;;;;;;;2.25;1.00;;;;;;;;;;5096217;28;20055;-58
2021/08/02 14:29:18;;;;;;;1.55;0.75;;;;;;;;;;5095947;28;20039;-58
2021/08/02 14:31:47;;;;;;;4.18;1.67;;;;;;;;;;5095749;28;20043;-58
2021/08/02 14:34:14;;;;;;;2.75;0.98;;;;;;;;;;5095360;28;20032;-59
2021/08/02 14:36:41;;;;;;;1.77;0.93;;;;;;;;;;5094034;28;20430;-59
2021/08/02 14:39:08;;;;;;;2.45;1.10;;;;;;;;;;5095290;28;20020;-59
2021/08/02 14:41:37;;;;;;;2.33;1.27;;;;;;;;;;5094576;28;20370;-58
2021/08/02 14:44:03;;;;;;;1.95;0.98;;;;;;;;;;5094332;28;20419;-58
2021/08/02 14:46:30;;;;;;;2.17;1.25;;;;;;;;;;5095290;28;20107;-59
2021/08/02 14:48:57;;;;;;;1.27;0.88;;;;;;;;;;5095094;28;20028;-58
2021/08/02 14:51:26;;;;;;;2.35;1.00;;;;;;;;;;5094893;28;20020;-59